createdAt,value
2017-02-02T00:00:00.419Z,5.84
2017-02-02T00:00:27.004Z,5.83
2017-02-02T00:00:48.720Z,5.84
2017-02-02T00:01:15.209Z,5.85
2017-02-02T00:01:36.918Z,5.85
2017-02-02T00:01:58.716Z,5.86
2017-02-02T00:02:20.441Z,5.86
2017-02-02T00:02:42.158Z,5.87
2017-02-02T00:03:03.875Z,5.85
2017-02-02T00:03:30.453Z,5.83
2017-02-02T00:03:52.237Z,5.82
2017-02-02T00:04:59.579Z,5.78
2017-02-02T00:05:21.292Z,5.78
2017-02-02T00:05:52.633Z,5.77
2017-02-02T00:06:14.403Z,5.75
2017-02-02T00:06:40.893Z,5.72
2017-02-02T00:07:02.615Z,5.72
2017-02-02T00:07:38.768Z,5.73
2017-02-02T00:08:05.913Z,5.75
2017-02-02T00:08:27.626Z,5.74
2017-02-02T00:08:49.345Z,5.74
2017-02-02T00:09:20.662Z,5.72
2017-02-02T00:09:42.374Z,5.71
2017-02-02T00:10:13.644Z,5.69
2017-02-02T00:10:35.403Z,5.67
2017-02-02T00:11:11.441Z,5.69
2017-02-02T00:11:38.556Z,5.70
2017-02-02T00:12:00.324Z,5.72
2017-02-02T00:12:22.041Z,5.73
2017-02-02T00:12:53.293Z,5.74
2017-02-02T00:13:15.069Z,5.74
2017-02-02T00:13:46.314Z,5.72
2017-02-02T00:14:08.047Z,5.71
2017-02-02T00:14:34.611Z,5.73
2017-02-02T00:14:56.310Z,5.72
2017-02-02T00:15:27.568Z,5.75
2017-02-02T00:15:49.279Z,5.75
2017-02-02T00:16:11.073Z,5.75
2017-02-02T00:16:37.551Z,5.73
2017-02-02T00:16:59.253Z,5.73
2017-02-02T00:17:25.810Z,5.73
2017-02-02T00:17:47.520Z,5.73
2017-02-02T00:18:14.000Z,5.73
2017-02-02T00:18:35.702Z,5.74
2017-02-02T00:18:57.473Z,5.73
2017-02-02T00:19:28.747Z,5.74
2017-02-02T00:19:50.450Z,5.72
2017-02-02T00:20:17.014Z,5.72
2017-02-02T00:20:38.739Z,5.72
2017-02-02T00:21:05.225Z,5.72
2017-02-02T00:21:26.924Z,5.73
2017-02-02T00:21:48.710Z,5.74
2017-02-02T00:22:19.966Z,5.72
2017-02-02T00:22:41.679Z,5.71
2017-02-02T00:23:03.474Z,5.71
2017-02-02T00:23:29.950Z,5.71
2017-02-02T00:23:51.645Z,5.71
2017-02-02T00:24:13.435Z,5.72
2017-02-02T00:24:35.191Z,5.72
2017-02-02T00:24:56.900Z,5.73
2017-02-02T00:25:18.613Z,5.75
2017-02-02T00:25:40.424Z,5.73
2017-02-02T00:26:02.130Z,5.73
2017-02-02T00:26:28.605Z,5.72
2017-02-02T00:26:50.370Z,5.72
2017-02-02T00:27:12.068Z,5.69
2017-02-02T00:27:48.127Z,5.69
2017-02-02T00:28:15.130Z,5.67
2017-02-02T00:28:36.823Z,5.64
2017-02-02T00:29:08.096Z,5.63
2017-02-02T00:29:29.880Z,5.63
2017-02-02T00:30:01.137Z,5.64
2017-02-02T00:30:22.872Z,5.64
2017-02-02T00:30:54.207Z,5.65
2017-02-02T00:31:15.920Z,5.68
2017-02-02T00:31:42.402Z,5.68
2017-02-02T00:32:04.090Z,5.69
2017-02-02T00:32:25.891Z,5.67
2017-02-02T00:32:52.363Z,5.71
2017-02-02T00:33:14.088Z,5.69
2017-02-02T00:33:35.908Z,5.71
2017-02-02T00:33:57.615Z,5.72
2017-02-02T00:34:19.323Z,5.71
2017-02-02T00:34:41.054Z,5.69
2017-02-02T00:35:07.607Z,5.65
2017-02-02T00:35:29.305Z,5.65
2017-02-02T00:35:51.015Z,5.65
2017-02-02T00:36:12.714Z,5.65
2017-02-02T00:36:34.484Z,5.65
2017-02-02T00:37:01.079Z,5.64
2017-02-02T00:37:24.893Z,5.62
2017-02-02T00:37:56.218Z,5.61
2017-02-02T00:38:18.021Z,5.62
2017-02-02T00:38:44.493Z,5.61
2017-02-02T00:39:06.205Z,5.62
2017-02-02T00:39:32.728Z,5.61
2017-02-02T00:39:54.444Z,5.62
2017-02-02T00:40:16.189Z,5.64
2017-02-02T00:40:37.905Z,5.65
2017-02-02T00:40:59.712Z,5.63
2017-02-02T00:41:30.966Z,5.62
2017-02-02T00:41:52.679Z,5.60
2017-02-02T00:42:14.461Z,5.60
2017-02-02T00:42:40.937Z,5.59
2017-02-02T00:43:02.648Z,5.57
2017-02-02T00:43:29.174Z,5.59
2017-02-02T00:43:50.879Z,5.56
2017-02-02T00:44:12.590Z,5.60
2017-02-02T00:44:34.296Z,5.61
2017-02-02T00:44:56.074Z,5.63
2017-02-02T00:45:22.574Z,5.62
2017-02-02T00:45:44.279Z,5.62
2017-02-02T00:46:05.984Z,5.63
2017-02-02T00:46:32.537Z,5.63
2017-02-02T00:46:54.277Z,5.64
2017-02-02T00:47:15.984Z,5.64
2017-02-02T00:47:37.683Z,5.65
2017-02-02T00:47:59.446Z,5.67
2017-02-02T00:48:25.930Z,5.65
2017-02-02T00:48:47.634Z,5.65
2017-02-02T00:49:09.342Z,5.64
2017-02-02T00:49:31.130Z,5.64
2017-02-02T00:49:52.824Z,5.65
2017-02-02T00:50:24.071Z,5.66
2017-02-02T00:50:45.875Z,5.62
2017-02-02T00:51:07.567Z,5.61
2017-02-02T00:51:29.278Z,5.62
2017-02-02T00:51:50.991Z,5.60
2017-02-02T00:52:12.748Z,5.60
2017-02-02T00:52:44.008Z,5.62
2017-02-02T00:53:05.707Z,5.62
2017-02-02T00:53:41.743Z,5.62
2017-02-02T00:54:04.226Z,5.64
2017-02-02T00:54:25.926Z,5.63
2017-02-02T00:55:01.959Z,5.60
2017-02-02T00:55:24.437Z,5.61
2017-02-02T00:55:46.161Z,5.61
2017-02-02T00:56:12.625Z,5.60
2017-02-02T00:56:34.417Z,5.60
2017-02-02T00:57:00.890Z,5.63
2017-02-02T00:57:22.600Z,5.61
2017-02-02T00:57:49.223Z,5.62
2017-02-02T00:58:10.916Z,5.64
2017-02-02T00:58:37.387Z,5.63
2017-02-02T00:58:59.109Z,5.62
2017-02-02T00:59:20.888Z,5.62
2017-02-02T00:59:42.592Z,5.62
2017-02-02T01:00:13.843Z,5.61
2017-02-02T01:00:35.604Z,5.62
2017-02-02T01:00:57.318Z,5.63
2017-02-02T01:01:33.414Z,5.61
2017-02-02T01:01:55.785Z,5.64
2017-02-02T01:02:17.507Z,5.62
2017-02-02T01:02:39.215Z,5.64
2017-02-02T01:03:15.379Z,5.63
2017-02-02T01:03:42.510Z,5.61
2017-02-02T01:04:04.222Z,5.58
2017-02-02T01:04:30.769Z,5.57
2017-02-02T01:04:52.534Z,5.57
2017-02-02T01:05:19.025Z,5.58
2017-02-02T01:05:40.734Z,5.57
2017-02-02T01:06:07.283Z,5.59
2017-02-02T01:06:28.986Z,5.58
2017-02-02T01:06:50.713Z,5.59
2017-02-02T01:07:26.746Z,5.59
2017-02-02T01:07:53.986Z,5.61
2017-02-02T01:08:15.688Z,5.62
2017-02-02T01:09:18.282Z,5.59
2017-02-02T01:09:39.979Z,5.59
2017-02-02T01:10:47.331Z,5.60
2017-02-02T01:11:09.063Z,5.61
2017-02-02T01:11:30.767Z,5.61
2017-02-02T01:11:57.258Z,5.61
2017-02-02T01:12:18.983Z,5.60
2017-02-02T01:12:40.720Z,5.59
2017-02-02T01:13:07.208Z,5.59
2017-02-02T01:13:29.003Z,5.57
2017-02-02T01:13:50.747Z,5.56
2017-02-02T01:14:17.238Z,5.57
2017-02-02T01:14:38.939Z,5.58
2017-02-02T01:15:00.715Z,5.58
2017-02-02T01:15:27.194Z,5.56
2017-02-02T01:15:48.917Z,5.57
2017-02-02T01:16:10.625Z,5.58
2017-02-02T01:16:37.164Z,5.59
2017-02-02T01:16:58.881Z,5.56
2017-02-02T01:17:34.929Z,5.56
2017-02-02T01:18:02.064Z,5.57
2017-02-02T01:18:23.784Z,5.58
2017-02-02T01:18:55.034Z,5.59
2017-02-02T01:19:16.810Z,5.60
2017-02-02T01:19:43.295Z,5.61
2017-02-02T01:20:05.018Z,5.62
2017-02-02T01:20:26.802Z,5.62
2017-02-02T01:20:48.514Z,5.61
2017-02-02T01:21:10.235Z,5.60
2017-02-02T01:21:41.556Z,5.55
2017-02-02T01:22:03.270Z,5.54
2017-02-02T01:23:10.598Z,5.47
2017-02-02T01:23:32.299Z,5.46
2017-02-02T01:24:08.331Z,5.49
2017-02-02T01:24:30.700Z,5.50
2017-02-02T01:24:52.431Z,5.51
2017-02-02T01:25:23.709Z,5.50
2017-02-02T01:25:45.435Z,5.49
2017-02-02T01:26:11.930Z,5.47
2017-02-02T01:26:33.642Z,5.46
2017-02-02T01:27:04.972Z,5.43
2017-02-02T01:27:26.680Z,5.43
2017-02-02T01:27:48.401Z,5.42
2017-02-02T01:28:10.099Z,5.44
2017-02-02T01:28:31.898Z,5.45
2017-02-02T01:29:34.423Z,5.47
2017-02-02T01:30:00.978Z,5.45
2017-02-02T01:30:22.677Z,5.43
2017-02-02T01:30:44.374Z,5.44
2017-02-02T01:31:06.114Z,5.44
2017-02-02T01:31:27.887Z,5.44
2017-02-02T01:31:49.596Z,5.44
2017-02-02T01:32:16.067Z,5.42
2017-02-02T01:32:37.864Z,5.42
2017-02-02T01:32:59.565Z,5.41
2017-02-02T01:33:21.311Z,5.39
2017-02-02T01:33:47.790Z,5.40
2017-02-02T01:34:14.339Z,5.41
2017-02-02T01:34:36.092Z,5.39
2017-02-02T01:34:57.807Z,5.40
2017-02-02T01:35:24.278Z,5.40
2017-02-02T01:35:46.068Z,5.41
2017-02-02T01:36:07.789Z,5.42
2017-02-02T01:36:39.051Z,5.42
2017-02-02T01:37:00.826Z,5.42
2017-02-02T01:37:22.549Z,5.41
2017-02-02T01:37:53.810Z,5.37
2017-02-02T01:38:15.621Z,5.38
2017-02-02T01:38:37.346Z,5.36
2017-02-02T01:39:08.600Z,5.39
2017-02-02T01:39:30.303Z,5.37
2017-02-02T01:40:06.375Z,5.37
2017-02-02T01:40:33.399Z,5.37
2017-02-02T01:40:55.241Z,5.40
2017-02-02T01:41:21.733Z,5.39
2017-02-02T01:41:43.441Z,5.39
2017-02-02T01:42:05.265Z,5.37
2017-02-02T01:42:36.532Z,5.39
2017-02-02T01:42:58.230Z,5.37
2017-02-02T01:43:24.770Z,5.35
2017-02-02T01:43:46.481Z,5.36
2017-02-02T01:44:08.195Z,5.36
2017-02-02T01:44:34.738Z,5.39
2017-02-02T01:44:56.462Z,5.41
2017-02-02T01:46:03.844Z,5.45
2017-02-02T01:46:25.565Z,5.45
2017-02-02T01:46:47.274Z,5.46
2017-02-02T01:47:08.981Z,5.47
2017-02-02T01:47:30.765Z,5.47
2017-02-02T01:47:52.498Z,5.46
2017-02-02T01:48:19.003Z,5.45
2017-02-02T01:48:40.780Z,5.45
2017-02-02T01:49:07.264Z,5.45
2017-02-02T01:49:28.980Z,5.44
2017-02-02T01:49:50.707Z,5.43
2017-02-02T01:50:17.271Z,5.42
2017-02-02T01:50:38.989Z,5.41
2017-02-02T01:51:10.241Z,5.40
2017-02-02T01:51:32.013Z,5.41
2017-02-02T01:52:03.276Z,5.41
2017-02-02T01:52:24.986Z,5.41
2017-02-02T01:52:56.299Z,5.39
2017-02-02T01:53:18.031Z,5.40
2017-02-02T01:53:39.732Z,5.40
2017-02-02T01:54:06.225Z,5.41
2017-02-02T01:54:28.014Z,5.41
2017-02-02T01:54:49.738Z,5.40
2017-02-02T01:55:16.220Z,5.40
2017-02-02T01:55:37.927Z,5.42
2017-02-02T01:56:14.089Z,5.44
2017-02-02T01:56:41.193Z,5.43
2017-02-02T01:57:02.919Z,5.44
2017-02-02T01:57:24.636Z,5.42
2017-02-02T01:57:46.411Z,5.44
2017-02-02T01:58:08.107Z,5.42
2017-02-02T01:58:29.808Z,5.40
2017-02-02T01:58:56.318Z,5.39
2017-02-02T01:59:18.103Z,5.36
2017-02-02T01:59:54.153Z,5.37
2017-02-02T02:00:21.209Z,5.39
2017-02-02T02:00:42.981Z,5.40
2017-02-02T02:01:09.490Z,5.40
2017-02-02T02:01:31.204Z,5.40
2017-02-02T02:01:57.774Z,5.41
2017-02-02T02:02:19.475Z,5.39
2017-02-02T02:02:55.512Z,5.39
2017-02-02T02:03:22.638Z,5.36
2017-02-02T02:03:44.336Z,5.35
2017-02-02T02:04:10.845Z,5.35
2017-02-02T02:04:32.553Z,5.35
2017-02-02T02:04:54.358Z,5.33
2017-02-02T02:05:30.430Z,5.30
2017-02-02T02:05:52.685Z,5.30
2017-02-02T02:06:14.524Z,5.30
2017-02-02T02:06:36.227Z,5.30
2017-02-02T02:07:02.721Z,5.29
2017-02-02T02:07:24.502Z,5.28
2017-02-02T02:08:27.019Z,5.26
2017-02-02T02:08:48.928Z,5.26
2017-02-02T02:09:15.410Z,5.26
2017-02-02T02:09:37.135Z,5.27
2017-02-02T02:10:08.466Z,5.27
2017-02-02T02:10:30.198Z,5.28
2017-02-02T02:11:06.243Z,5.29
2017-02-02T02:11:28.628Z,5.31
2017-02-02T02:11:50.483Z,5.31
2017-02-02T02:12:16.978Z,5.33
2017-02-02T02:12:38.742Z,5.34
2017-02-02T02:13:00.456Z,5.35
2017-02-02T02:13:31.706Z,5.36
2017-02-02T02:13:53.485Z,5.35
2017-02-02T02:14:15.237Z,5.32
2017-02-02T02:14:46.491Z,5.33
2017-02-02T02:15:08.261Z,5.33
2017-02-02T02:15:29.972Z,5.34
2017-02-02T02:16:05.996Z,5.38
2017-02-02T02:16:28.330Z,5.38
2017-02-02T02:16:50.055Z,5.37
2017-02-02T02:17:21.322Z,5.40
2017-02-02T02:17:43.429Z,5.41
2017-02-02T02:18:14.691Z,5.43
2017-02-02T02:18:36.416Z,5.42
2017-02-02T02:19:07.727Z,5.40
2017-02-02T02:19:29.426Z,5.36
2017-02-02T02:19:51.143Z,5.35
2017-02-02T02:20:12.962Z,5.34
2017-02-02T02:20:34.772Z,5.32
2017-02-02T02:21:01.320Z,5.30
2017-02-02T02:21:23.020Z,5.30
2017-02-02T02:21:44.815Z,5.27
2017-02-02T02:22:16.069Z,5.26
2017-02-02T02:22:37.797Z,5.27
2017-02-02T02:23:04.328Z,5.26
2017-02-02T02:23:26.049Z,5.25
2017-02-02T02:23:47.778Z,5.25
2017-02-02T02:24:09.481Z,5.25
2017-02-02T02:24:31.276Z,5.26
2017-02-02T02:24:52.997Z,5.23
2017-02-02T02:25:19.495Z,5.23
2017-02-02T02:25:41.322Z,5.21
2017-02-02T02:26:07.781Z,5.20
2017-02-02T02:26:29.495Z,5.19
2017-02-02T02:26:56.064Z,5.20
2017-02-02T02:27:17.823Z,5.21
2017-02-02T02:27:39.538Z,5.21
2017-02-02T02:28:01.231Z,5.20
2017-02-02T02:28:23.004Z,5.20
2017-02-02T02:28:44.715Z,5.20
2017-02-02T02:29:06.438Z,5.19
2017-02-02T02:29:28.135Z,5.18
2017-02-02T02:29:49.918Z,5.17
2017-02-02T02:30:11.633Z,5.18
2017-02-02T02:30:38.105Z,5.20
2017-02-02T02:30:59.816Z,5.19
2017-02-02T02:31:26.365Z,5.19
2017-02-02T02:31:48.066Z,5.17
2017-02-02T02:32:09.769Z,5.16
2017-02-02T02:32:31.505Z,5.16
2017-02-02T02:32:53.331Z,5.18
2017-02-02T02:33:15.039Z,5.17
2017-02-02T02:33:41.518Z,5.13
2017-02-02T02:34:03.214Z,5.10
2017-02-02T02:34:24.998Z,5.10
2017-02-02T02:34:46.703Z,5.09
2017-02-02T02:35:08.408Z,5.09
2017-02-02T02:35:30.115Z,5.12
2017-02-02T02:35:56.691Z,5.15
2017-02-02T02:36:21.193Z,5.15
2017-02-02T02:36:47.705Z,5.14
2017-02-02T02:37:09.510Z,5.14
2017-02-02T02:38:16.799Z,5.09
2017-02-02T02:38:38.570Z,5.08
2017-02-02T02:39:05.050Z,5.07
2017-02-02T02:39:26.768Z,5.06
2017-02-02T02:39:58.112Z,5.06
2017-02-02T02:40:19.799Z,5.07
2017-02-02T02:40:41.534Z,5.10
2017-02-02T02:41:08.029Z,5.12
2017-02-02T02:41:29.820Z,5.14
2017-02-02T02:42:01.068Z,5.13
2017-02-02T02:42:32.350Z,5.10
2017-02-02T02:42:54.128Z,5.12
2017-02-02T02:43:15.857Z,5.11
2017-02-02T02:43:42.359Z,5.11
2017-02-02T02:44:04.138Z,5.15
2017-02-02T02:44:25.847Z,5.16
2017-02-02T02:44:52.350Z,5.18
2017-02-02T02:45:14.083Z,5.18
2017-02-02T02:45:45.411Z,5.18
2017-02-02T02:46:07.118Z,5.18
2017-02-02T02:46:28.828Z,5.17
2017-02-02T02:46:55.296Z,5.18
2017-02-02T02:47:17.077Z,5.20
2017-02-02T02:48:20.163Z,5.17
2017-02-02T02:48:41.940Z,5.15
2017-02-02T02:49:03.689Z,5.17
2017-02-02T02:49:25.414Z,5.18
2017-02-02T02:49:47.117Z,5.19
2017-02-02T02:50:13.695Z,5.17
2017-02-02T02:50:35.411Z,5.16
2017-02-02T02:50:57.127Z,5.18
2017-02-02T02:52:04.410Z,5.17
2017-02-02T02:52:26.124Z,5.18
2017-02-02T02:52:47.864Z,5.19
2017-02-02T02:53:09.672Z,5.19
2017-02-02T02:53:31.382Z,5.19
2017-02-02T02:53:57.851Z,5.20
2017-02-02T02:54:19.652Z,5.20
2017-02-02T02:54:41.346Z,5.20
2017-02-02T02:55:07.841Z,5.20
2017-02-02T02:55:29.560Z,5.22
2017-02-02T02:55:56.119Z,5.22
2017-02-02T02:56:17.815Z,5.23
2017-02-02T02:56:44.298Z,5.25
2017-02-02T02:57:06.018Z,5.23
2017-02-02T02:57:35.353Z,5.24
2017-02-02T02:57:57.054Z,5.25
2017-02-02T02:58:28.310Z,5.24
2017-02-02T02:58:50.095Z,5.26
2017-02-02T02:59:21.360Z,5.28
2017-02-02T02:59:43.069Z,5.28
2017-02-02T03:00:04.877Z,5.29
2017-02-02T03:00:26.640Z,5.26
2017-02-02T03:00:48.352Z,5.25
2017-02-02T03:01:19.673Z,5.27
2017-02-02T03:01:41.369Z,5.28
2017-02-02T03:02:48.736Z,5.25
2017-02-02T03:03:10.434Z,5.24
2017-02-02T03:03:32.141Z,5.25
2017-02-02T03:04:03.484Z,5.29
2017-02-02T03:04:25.219Z,5.28
2017-02-02T03:04:51.702Z,5.28
2017-02-02T03:05:13.415Z,5.27
2017-02-02T03:05:35.230Z,5.28
2017-02-02T03:06:01.716Z,5.27
2017-02-02T03:06:23.407Z,5.28
2017-02-02T03:06:45.104Z,5.28
2017-02-02T03:07:11.671Z,5.29
2017-02-02T03:07:33.392Z,5.29
2017-02-02T03:07:59.880Z,5.29
2017-02-02T03:08:21.596Z,5.28
2017-02-02T03:08:57.635Z,5.30
2017-02-02T03:09:51.371Z,5.29
2017-02-02T03:10:13.163Z,5.29
2017-02-02T03:10:39.632Z,5.30
2017-02-02T03:11:01.343Z,5.30
2017-02-02T03:11:23.065Z,5.31
2017-02-02T03:11:44.853Z,5.30
2017-02-02T03:12:06.565Z,5.30
2017-02-02T03:12:28.271Z,5.30
2017-02-02T03:13:35.543Z,5.26
2017-02-02T03:13:57.267Z,5.28
2017-02-02T03:14:23.833Z,5.28
2017-02-02T03:14:45.545Z,5.26
2017-02-02T03:15:12.026Z,5.27
2017-02-02T03:15:36.300Z,5.26
2017-02-02T03:16:07.614Z,5.25
2017-02-02T03:16:29.325Z,5.23
2017-02-02T03:16:51.161Z,5.23
2017-02-02T03:17:12.950Z,5.24
2017-02-02T03:17:34.758Z,5.25
2017-02-02T03:18:06.058Z,5.26
2017-02-02T03:18:27.782Z,5.27
2017-02-02T03:18:49.499Z,5.28
2017-02-02T03:19:15.990Z,5.28
2017-02-02T03:19:37.763Z,5.28
2017-02-02T03:19:59.460Z,5.27
2017-02-02T03:20:25.938Z,5.25
2017-02-02T03:20:47.727Z,5.25
2017-02-02T03:21:14.205Z,5.25
2017-02-02T03:21:35.905Z,5.27
2017-02-02T03:21:57.644Z,5.26
2017-02-02T03:22:19.422Z,5.27
2017-02-02T03:22:41.131Z,5.26
2017-02-02T03:23:02.827Z,5.25
2017-02-02T03:23:38.862Z,5.25
2017-02-02T03:24:06.028Z,5.24
2017-02-02T03:24:27.730Z,5.24
2017-02-02T03:24:54.279Z,5.22
2017-02-02T03:25:15.981Z,5.23
2017-02-02T03:25:42.485Z,5.22
2017-02-02T03:26:04.171Z,5.21
2017-02-02T03:26:25.970Z,5.19
2017-02-02T03:26:52.442Z,5.19
2017-02-02T03:27:14.166Z,5.20
2017-02-02T03:27:40.756Z,5.21
2017-02-02T03:28:02.455Z,5.19
2017-02-02T03:28:33.711Z,5.20
2017-02-02T03:28:55.480Z,5.20
2017-02-02T03:29:21.961Z,5.21
2017-02-02T03:29:43.656Z,5.21
2017-02-02T03:30:15.007Z,5.23
2017-02-02T03:30:36.714Z,5.22
2017-02-02T03:31:39.308Z,5.20
2017-02-02T03:32:01.012Z,5.18
2017-02-02T03:32:37.055Z,5.21
2017-02-02T03:32:59.413Z,5.20
2017-02-02T03:33:21.207Z,5.21
2017-02-02T03:33:52.461Z,5.23
2017-02-02T03:34:14.161Z,5.22
2017-02-02T03:34:35.878Z,5.22
2017-02-02T03:34:57.587Z,5.23
2017-02-02T03:35:19.309Z,5.20
2017-02-02T03:35:50.585Z,5.20
2017-02-02T03:36:12.291Z,5.18
2017-02-02T03:36:38.776Z,5.18
2017-02-02T03:37:00.481Z,5.20
2017-02-02T03:37:27.062Z,5.23
2017-02-02T03:37:48.789Z,5.24
2017-02-02T03:38:10.524Z,5.25
2017-02-02T03:38:37.091Z,5.27
2017-02-02T03:38:58.819Z,5.27
2017-02-02T03:39:34.848Z,5.25
2017-02-02T03:40:02.007Z,5.24
2017-02-02T03:40:23.727Z,5.24
2017-02-02T03:40:50.211Z,5.25
2017-02-02T03:41:11.980Z,5.24
2017-02-02T03:41:43.347Z,5.24
2017-02-02T03:42:05.063Z,5.24
2017-02-02T03:42:31.588Z,5.25
2017-02-02T03:42:53.333Z,5.26
2017-02-02T03:43:19.911Z,5.26
2017-02-02T03:43:41.629Z,5.25
2017-02-02T03:44:03.359Z,5.21
2017-02-02T03:44:39.395Z,5.18
2017-02-02T03:45:06.560Z,5.16
2017-02-02T03:45:28.260Z,5.13
2017-02-02T03:45:59.623Z,5.13
2017-02-02T03:46:21.329Z,5.13
2017-02-02T03:46:43.031Z,5.12
2017-02-02T03:47:09.502Z,5.12
2017-02-02T03:47:31.374Z,5.10
2017-02-02T03:47:53.081Z,5.11
2017-02-02T03:48:14.780Z,5.13
2017-02-02T03:48:36.498Z,5.15
2017-02-02T03:49:07.834Z,5.18
2017-02-02T03:49:29.558Z,5.17
2017-02-02T03:50:05.588Z,5.18
2017-02-02T03:50:32.724Z,5.18
2017-02-02T03:50:54.433Z,5.18
2017-02-02T03:51:25.696Z,5.19
2017-02-02T03:51:47.490Z,5.19
2017-02-02T03:52:54.905Z,5.19
2017-02-02T03:53:16.713Z,5.17
2017-02-02T03:53:43.292Z,5.17
2017-02-02T03:54:05.028Z,5.15
2017-02-02T03:54:26.839Z,5.18
2017-02-02T03:55:34.147Z,5.19
2017-02-02T03:55:55.963Z,5.20
2017-02-02T03:57:08.118Z,5.19
2017-02-02T03:57:29.832Z,5.20
2017-02-02T03:57:51.547Z,5.20
2017-02-02T03:58:13.263Z,5.20
2017-02-02T03:58:35.068Z,5.21
2017-02-02T03:59:42.348Z,5.22
2017-02-02T04:00:04.184Z,5.22
2017-02-02T04:01:16.334Z,5.22
2017-02-02T04:01:38.057Z,5.22
2017-02-02T04:02:40.672Z,5.21
2017-02-02T04:03:07.161Z,5.24
2017-02-02T04:03:28.860Z,5.22
2017-02-02T04:04:41.048Z,5.24
2017-02-02T04:05:02.891Z,5.23
2017-02-02T04:05:29.485Z,5.22
2017-02-02T04:05:51.267Z,5.21
2017-02-02T04:06:27.304Z,5.21
2017-02-02T04:06:54.581Z,5.21
2017-02-02T04:07:16.291Z,5.20
2017-02-02T04:07:47.550Z,5.18
2017-02-02T04:08:09.392Z,5.19
2017-02-02T04:08:40.649Z,5.17
2017-02-02T04:09:02.378Z,5.18
2017-02-02T04:09:33.638Z,5.20
2017-02-02T04:09:55.353Z,5.19
2017-02-02T04:10:26.606Z,5.19
2017-02-02T04:10:48.413Z,5.17
2017-02-02T04:11:14.899Z,5.15
2017-02-02T04:11:36.612Z,5.16
2017-02-02T04:11:58.345Z,5.18
2017-02-02T04:12:24.943Z,5.19
2017-02-02T04:12:46.678Z,5.19
2017-02-02T04:13:22.704Z,5.20
2017-02-02T04:13:49.823Z,5.19
2017-02-02T04:14:11.637Z,5.19
2017-02-02T04:14:33.346Z,5.18
2017-02-02T04:14:59.827Z,5.17
2017-02-02T04:15:52.847Z,5.17
2017-02-02T04:16:14.567Z,5.16
2017-02-02T04:16:36.300Z,5.14
2017-02-02T04:17:02.787Z,5.15
2017-02-02T04:17:24.595Z,5.15
2017-02-02T04:17:55.858Z,5.15
2017-02-02T04:18:17.587Z,5.17
2017-02-02T04:19:25.003Z,5.17
2017-02-02T04:19:46.720Z,5.16
2017-02-02T04:20:49.360Z,5.15
2017-02-02T04:21:11.091Z,5.15
2017-02-02T04:21:37.574Z,5.16
2017-02-02T04:21:59.372Z,5.16
2017-02-02T04:23:01.894Z,5.12
2017-02-02T04:23:23.691Z,5.12
2017-02-02T04:23:45.421Z,5.12
2017-02-02T04:24:07.149Z,5.11
2017-02-02T04:24:28.857Z,5.12
2017-02-02T04:25:02.796Z,5.12
2017-02-02T04:25:24.543Z,5.12
2017-02-02T04:25:46.280Z,5.13
2017-02-02T04:26:17.540Z,5.12
2017-02-02T04:26:39.267Z,5.13
2017-02-02T04:27:01.003Z,5.14
2017-02-02T04:27:27.489Z,5.14
2017-02-02T04:27:49.293Z,5.15
2017-02-02T04:28:15.784Z,5.14
2017-02-02T04:28:37.486Z,5.14
2017-02-02T04:29:04.075Z,5.13
2017-02-02T04:29:25.801Z,5.14
2017-02-02T04:29:52.303Z,5.15
2017-02-02T04:30:14.026Z,5.15
2017-02-02T04:30:35.879Z,5.15
2017-02-02T04:31:02.377Z,5.16
2017-02-02T04:31:24.072Z,5.18
2017-02-02T04:31:45.875Z,5.17
2017-02-02T04:32:12.358Z,5.17
2017-02-02T04:32:34.084Z,5.16
2017-02-02T04:33:05.429Z,5.14
2017-02-02T04:33:27.131Z,5.16
2017-02-02T04:33:53.636Z,5.17
2017-02-02T04:34:15.349Z,5.16
2017-02-02T04:34:41.895Z,5.17
2017-02-02T04:35:03.596Z,5.16
2017-02-02T04:35:25.309Z,5.15
2017-02-02T04:35:51.792Z,5.15
2017-02-02T04:36:13.606Z,5.14
2017-02-02T04:36:35.338Z,5.14
2017-02-02T04:37:01.830Z,5.13
2017-02-02T04:37:23.657Z,5.13
2017-02-02T04:37:50.147Z,5.12
2017-02-02T04:38:11.847Z,5.13
2017-02-02T04:38:38.418Z,5.14
2017-02-02T04:39:00.135Z,5.13
2017-02-02T04:39:26.607Z,5.13
2017-02-02T04:39:48.324Z,5.14
2017-02-02T04:40:14.927Z,5.15
2017-02-02T04:40:36.656Z,5.15
2017-02-02T04:40:58.349Z,5.17
2017-02-02T04:41:24.831Z,5.17
2017-02-02T04:41:46.658Z,5.15
2017-02-02T04:42:13.180Z,5.17
2017-02-02T04:42:34.907Z,5.19
2017-02-02T04:43:01.396Z,5.19
2017-02-02T04:43:27.871Z,5.19
2017-02-02T04:43:49.566Z,5.20
2017-02-02T04:44:16.097Z,5.24
2017-02-02T04:44:37.797Z,5.21
2017-02-02T04:45:04.284Z,5.23
2017-02-02T04:45:26.000Z,5.23
2017-02-02T04:45:52.557Z,5.20
2017-02-02T04:46:14.280Z,5.20
2017-02-02T04:46:40.765Z,5.22
2017-02-02T04:47:02.544Z,5.24
2017-02-02T04:48:14.661Z,5.24
2017-02-02T04:48:36.377Z,5.23
2017-02-02T04:49:02.883Z,5.25
2017-02-02T04:49:24.573Z,5.25
2017-02-02T04:49:55.897Z,5.25
2017-02-02T04:50:17.594Z,5.26
2017-02-02T04:50:48.854Z,5.26
2017-02-02T04:51:10.625Z,5.28
2017-02-02T04:51:41.889Z,5.30
2017-02-02T04:52:03.579Z,5.29
2017-02-02T04:52:30.122Z,5.28
2017-02-02T04:52:51.833Z,5.27
2017-02-02T04:53:13.587Z,5.29
2017-02-02T04:53:44.987Z,5.30
2017-02-02T04:54:06.700Z,5.27
2017-02-02T04:54:28.407Z,5.27
2017-02-02T04:54:50.132Z,5.27
2017-02-02T04:55:11.918Z,5.23
2017-02-02T04:55:33.628Z,5.22
2017-02-02T04:56:04.934Z,5.22
2017-02-02T04:56:26.734Z,5.23
2017-02-02T04:56:58.000Z,5.23
2017-02-02T04:57:19.726Z,5.20
2017-02-02T04:57:46.276Z,5.21
2017-02-02T04:58:07.974Z,5.22
2017-02-02T04:58:29.675Z,5.21
2017-02-02T04:58:56.220Z,5.20
2017-02-02T04:59:17.919Z,5.21
2017-02-02T04:59:49.175Z,5.18
2017-02-02T05:00:10.955Z,5.15
2017-02-02T05:00:42.209Z,5.13
2017-02-02T05:01:03.927Z,5.12
2017-02-02T05:01:25.752Z,5.08
2017-02-02T05:01:47.490Z,5.06
2017-02-02T05:02:09.219Z,5.07
2017-02-02T05:02:30.918Z,5.09
2017-02-02T05:02:52.694Z,5.09
2017-02-02T05:03:14.405Z,5.08
2017-02-02T05:03:45.653Z,5.09
2017-02-02T05:04:07.438Z,5.07
2017-02-02T05:04:38.702Z,5.10
2017-02-02T05:05:00.490Z,5.13
2017-02-02T05:05:22.270Z,5.14
2017-02-02T05:05:48.755Z,5.15
2017-02-02T05:06:10.462Z,5.17
2017-02-02T05:06:46.619Z,5.17
2017-02-02T05:07:13.734Z,5.19
2017-02-02T05:07:35.445Z,5.18
2017-02-02T05:07:57.143Z,5.20
2017-02-02T05:08:18.924Z,5.23
2017-02-02T05:08:40.620Z,5.24
2017-02-02T05:09:16.653Z,5.25
2017-02-02T05:09:43.783Z,5.24
2017-02-02T05:10:05.488Z,5.26
2017-02-02T05:10:31.976Z,5.27
2017-02-02T05:10:53.700Z,5.27
2017-02-02T05:11:29.737Z,5.27
2017-02-02T05:11:52.842Z,5.28
2017-02-02T05:12:14.553Z,5.29
2017-02-02T05:12:45.879Z,5.27
2017-02-02T05:13:07.608Z,5.25
2017-02-02T05:13:43.654Z,5.25
2017-02-02T05:14:10.743Z,5.24
2017-02-02T05:14:32.465Z,5.26
2017-02-02T05:14:54.186Z,5.26
2017-02-02T05:15:20.700Z,5.27
2017-02-02T05:15:42.553Z,5.29
2017-02-02T05:16:18.597Z,5.29
2017-02-02T05:16:46.643Z,5.29
2017-02-02T05:17:08.427Z,5.31
2017-02-02T05:17:30.138Z,5.28
2017-02-02T05:17:56.631Z,5.26
2017-02-02T05:18:18.341Z,5.24
2017-02-02T05:18:49.671Z,5.21
2017-02-02T05:19:11.405Z,5.19
2017-02-02T05:19:42.662Z,5.19
2017-02-02T05:20:04.462Z,5.20
2017-02-02T05:20:35.713Z,5.19
2017-02-02T05:20:57.415Z,5.19
2017-02-02T05:21:28.730Z,5.20
2017-02-02T05:21:50.458Z,5.18
2017-02-02T05:22:16.969Z,5.20
2017-02-02T05:22:38.672Z,5.20
2017-02-02T05:23:09.933Z,5.19
2017-02-02T05:23:31.660Z,5.20
2017-02-02T05:24:02.929Z,5.20
2017-02-02T05:24:24.684Z,5.17
2017-02-02T05:24:46.387Z,5.16
2017-02-02T05:25:08.100Z,5.16
2017-02-02T05:25:29.812Z,5.18
2017-02-02T05:25:51.597Z,5.18
2017-02-02T05:26:13.337Z,5.17
2017-02-02T05:26:35.060Z,5.18
2017-02-02T05:26:56.787Z,5.19
2017-02-02T05:27:23.310Z,5.20
2017-02-02T05:27:45.037Z,5.23
2017-02-02T05:28:21.082Z,5.22
2017-02-02T05:28:48.181Z,5.23
2017-02-02T05:29:09.891Z,5.22
2017-02-02T05:29:31.616Z,5.19
2017-02-02T05:29:53.312Z,5.16
2017-02-02T05:30:15.075Z,5.13
2017-02-02T05:30:36.797Z,5.12
2017-02-02T05:30:58.499Z,5.11
2017-02-02T05:31:51.536Z,5.10
2017-02-02T05:32:13.250Z,5.12
2017-02-02T05:32:39.739Z,5.12
2017-02-02T05:33:01.475Z,5.14
2017-02-02T05:33:23.231Z,5.14
2017-02-02T05:33:44.945Z,5.15
2017-02-02T05:34:06.670Z,5.14
2017-02-02T05:34:28.387Z,5.14
2017-02-02T05:34:50.164Z,5.15
2017-02-02T05:35:11.875Z,5.14
2017-02-02T05:35:43.128Z,5.17
2017-02-02T05:36:04.938Z,5.17
2017-02-02T05:36:31.417Z,5.17
2017-02-02T05:36:53.110Z,5.17
2017-02-02T05:37:14.957Z,5.17
2017-02-02T05:37:41.427Z,5.18
2017-02-02T05:38:03.173Z,5.17
2017-02-02T05:38:24.892Z,5.19
2017-02-02T05:38:51.450Z,5.17
2017-02-02T05:39:13.173Z,5.14
2017-02-02T05:39:39.657Z,5.13
2017-02-02T05:40:01.367Z,5.15
2017-02-02T05:40:27.990Z,5.16
2017-02-02T05:40:49.688Z,5.17
2017-02-02T05:41:11.392Z,5.14
2017-02-02T05:41:42.711Z,5.17
2017-02-02T05:42:04.416Z,5.17
2017-02-02T05:42:26.129Z,5.18